createdAt,value
2022-09-01T00:04:33.552Z,367.81
2022-09-01T00:09:40.710Z,367.84
2022-09-01T00:14:47.873Z,367.92
2022-09-01T00:19:55.099Z,368.33
2022-09-01T00:25:02.366Z,368.50
2022-09-01T00:30:09.558Z,367.97
2022-09-01T00:35:16.754Z,368.02
2022-09-01T00:40:24.051Z,368.03
2022-09-01T00:45:31.235Z,368.55
2022-09-01T00:50:38.434Z,368.72
2022-09-01T00:55:45.595Z,368.60
2022-09-01T01:00:52.776Z,368.65
2022-09-01T01:05:59.965Z,368.74
2022-09-01T01:11:07.221Z,369.02
2022-09-01T01:16:14.533Z,369.37
2022-09-01T01:21:21.736Z,369.85
2022-09-01T01:26:28.919Z,370.36
2022-09-01T01:31:36.218Z,370.21
2022-09-01T01:36:43.383Z,370.69
2022-09-01T01:41:50.546Z,369.96
2022-09-01T01:46:57.735Z,369.96
2022-09-01T01:52:04.951Z,370.02
2022-09-01T01:57:12.095Z,370.22
2022-09-01T02:02:19.347Z,369.74
2022-09-01T02:07:26.481Z,369.06
2022-09-01T02:12:33.679Z,368.59
2022-09-01T02:17:40.842Z,368.88
2022-09-01T02:22:48.029Z,368.67
2022-09-01T02:27:55.229Z,368.72
2022-09-01T02:33:02.471Z,369.02
2022-09-01T02:38:09.682Z,369.13
2022-09-01T02:43:16.861Z,369.36
2022-09-01T02:48:24.058Z,369.63
2022-09-01T02:53:31.853Z,369.44
2022-09-01T02:58:39.060Z,369.82
2022-09-01T03:03:46.321Z,369.84
2022-09-01T03:08:53.494Z,370.45
2022-09-01T03:14:00.689Z,370.54
2022-09-01T03:19:07.880Z,371.03
2022-09-01T03:24:15.062Z,371.15
2022-09-01T03:29:22.232Z,371.19
2022-09-01T03:34:29.414Z,372.03
2022-09-01T03:39:36.606Z,372.34
2022-09-01T03:44:43.799Z,372.28
2022-09-01T03:49:50.978Z,372.37
2022-09-01T03:54:58.216Z,372.19
2022-09-01T04:00:05.452Z,372.31
2022-09-01T04:05:12.695Z,372.22
2022-09-01T04:10:19.922Z,372.12
2022-09-01T04:15:27.103Z,372.32
2022-09-01T04:20:34.292Z,372.15
2022-09-01T04:25:41.474Z,372.44
2022-09-01T04:30:48.661Z,372.39
2022-09-01T04:35:55.858Z,372.66
2022-09-01T04:41:03.027Z,372.33
2022-09-01T04:46:10.246Z,372.56
2022-09-01T04:51:17.367Z,372.41
2022-09-01T04:56:24.584Z,372.40
2022-09-01T05:01:31.891Z,372.35
2022-09-01T05:06:39.060Z,372.06
2022-09-01T05:11:46.248Z,371.90
2022-09-01T05:16:53.382Z,371.67
2022-09-01T05:22:00.615Z,371.45
2022-09-01T05:27:07.788Z,371.35
2022-09-01T05:32:15.008Z,371.35
2022-09-01T05:37:22.161Z,371.05
2022-09-01T05:42:29.386Z,371.57
2022-09-01T05:47:36.632Z,371.35
2022-09-01T05:52:43.816Z,371.64
2022-09-01T05:57:51.007Z,371.55
2022-09-01T06:02:58.368Z,371.08
2022-09-01T06:08:05.379Z,371.13
2022-09-01T06:13:12.616Z,371.26
2022-09-01T06:18:19.741Z,371.20
2022-09-01T06:23:26.965Z,371.29
2022-09-01T06:28:34.239Z,371.03
2022-09-01T06:33:41.419Z,371.10
2022-09-01T06:38:48.606Z,371.18
2022-09-01T06:43:55.880Z,371.48
2022-09-01T06:49:03.168Z,371.27
2022-09-01T06:54:14.107Z,370.80
2022-09-01T06:59:17.651Z,370.27
2022-09-01T07:04:25.335Z,370.60
2022-09-01T07:09:48.090Z,370.28
2022-09-01T07:19:49.751Z,370.07
2022-09-01T07:25:11.978Z,369.91
2022-09-01T07:30:01.146Z,369.63
2022-09-01T07:35:08.422Z,369.17
2022-09-01T07:45:26.712Z,368.55
2022-09-01T07:55:37.283Z,368.04
2022-09-01T08:00:44.459Z,367.55
2022-09-01T08:05:51.635Z,367.45
2022-09-01T08:11:05.586Z,367.49
2022-09-01T08:16:07.463Z,367.11
2022-09-01T08:21:13.196Z,367.54
2022-09-01T08:26:20.379Z,366.88
2022-09-01T08:31:30.749Z,366.35
2022-09-01T08:36:35.574Z,366.49
2022-09-01T08:41:46.779Z,366.22
2022-09-01T08:46:49.159Z,366.07
2022-09-01T08:51:56.286Z,366.10
2022-09-01T08:57:03.493Z,366.17
2022-09-01T09:02:10.671Z,366.13
2022-09-01T09:07:17.807Z,366.16
2022-09-01T09:12:25.046Z,366.70
2022-09-01T09:17:32.248Z,366.66
2022-09-01T09:22:39.413Z,367.16
2022-09-01T09:27:46.619Z,366.98
2022-09-01T09:38:00.981Z,367.64
2022-09-01T09:43:08.248Z,367.10
2022-09-01T09:48:15.460Z,367.54
2022-09-01T09:53:23.350Z,367.76
2022-09-01T09:58:30.513Z,368.38
2022-09-01T10:03:37.732Z,368.38
2022-09-01T10:08:44.869Z,369.55
2022-09-01T10:13:52.074Z,369.24
2022-09-01T10:18:59.247Z,369.00
2022-09-01T10:24:25.915Z,369.04
2022-09-01T10:29:15.700Z,369.41
2022-09-01T10:34:20.789Z,369.58
2022-09-01T10:39:31.116Z,369.88
2022-09-01T10:44:35.893Z,370.26
2022-09-01T10:49:46.404Z,370.31
2022-09-01T10:54:51.612Z,370.47
2022-09-01T10:59:57.251Z,370.48
2022-09-01T11:05:04.014Z,370.46
2022-09-01T11:10:11.973Z,370.60
2022-09-01T11:15:18.283Z,370.99
2022-09-01T11:20:25.526Z,371.49
2022-09-01T11:25:40.302Z,371.82
2022-09-01T11:30:39.935Z,372.23
2022-09-01T11:35:47.124Z,372.80
2022-09-01T11:40:54.424Z,372.94
2022-09-01T11:46:01.551Z,372.91
2022-09-01T11:51:08.705Z,373.21
2022-09-01T11:56:15.873Z,373.50
2022-09-01T12:01:23.076Z,373.36
2022-09-01T12:06:30.356Z,374.12
2022-09-01T12:11:37.506Z,374.06
2022-09-01T12:16:44.770Z,374.17
2022-09-01T12:21:54.172Z,374.25
2022-09-01T12:26:59.111Z,374.56
2022-09-01T12:32:06.459Z,374.52
2022-09-01T12:37:13.445Z,374.35
2022-09-01T12:42:20.640Z,374.65
2022-09-01T12:47:27.825Z,375.23
2022-09-01T12:52:35.009Z,375.02
2022-09-01T12:57:42.204Z,374.99
2022-09-01T13:02:49.492Z,375.59
2022-09-01T13:07:56.559Z,375.37
2022-09-01T13:13:03.757Z,375.42
2022-09-01T13:18:11.657Z,375.91
2022-09-01T13:23:18.243Z,377.11
2022-09-01T13:34:09.307Z,377.08
2022-09-01T13:38:40.096Z,377.47
2022-09-01T13:43:48.283Z,377.43
2022-09-01T13:54:01.610Z,379.00
2022-09-01T13:59:08.805Z,378.88
2022-09-01T14:04:16.221Z,378.94
2022-09-01T14:09:23.278Z,379.44
2022-09-01T14:19:37.763Z,379.06
2022-09-01T14:24:44.928Z,379.81
2022-09-01T14:29:54.748Z,379.75
2022-09-01T14:34:59.307Z,380.39
2022-09-01T14:40:06.635Z,379.82
2022-09-01T14:45:13.772Z,379.74
2022-09-01T14:50:22.926Z,380.31
2022-09-01T14:55:28.144Z,380.52
2022-09-01T15:00:35.429Z,380.87
2022-09-01T15:05:42.631Z,380.59
2022-09-01T15:10:49.790Z,381.25
2022-09-01T15:15:57.122Z,381.33
2022-09-01T15:21:04.162Z,381.35
2022-09-01T15:26:11.349Z,381.34
2022-09-01T15:31:18.568Z,381.83
2022-09-01T15:36:25.737Z,382.62
2022-09-01T15:41:32.897Z,383.30
2022-09-01T15:46:40.163Z,383.13
2022-09-01T15:51:47.293Z,382.94
2022-09-01T15:56:54.593Z,382.68
2022-09-01T16:02:01.887Z,383.00
2022-09-01T16:07:08.977Z,382.95
2022-09-01T16:12:16.207Z,382.99
2022-09-01T16:17:23.341Z,382.94
2022-09-01T16:22:30.532Z,383.33
2022-09-01T16:27:37.780Z,383.48
2022-09-01T16:32:44.977Z,383.56
2022-09-01T16:37:52.140Z,383.28
2022-09-01T16:42:59.337Z,383.66
2022-09-01T16:48:06.530Z,383.98
2022-09-01T16:53:13.731Z,384.39
2022-09-01T16:58:21.594Z,384.61
2022-09-01T17:03:34.326Z,384.43
2022-09-01T17:08:35.386Z,384.27
2022-09-01T17:13:42.551Z,384.15
2022-09-01T17:18:49.738Z,384.18
2022-09-01T17:23:57.069Z,384.14
2022-09-01T17:29:04.291Z,383.67
2022-09-01T17:34:11.503Z,383.64
2022-09-01T17:39:18.683Z,383.22
2022-09-01T17:44:25.899Z,383.02
2022-09-01T17:49:33.105Z,382.53
2022-09-01T17:54:40.307Z,382.53
2022-09-01T17:59:47.500Z,382.83
2022-09-01T18:04:54.740Z,382.43
2022-09-01T18:10:01.880Z,382.13
2022-09-01T18:15:09.099Z,382.18
2022-09-01T18:20:16.244Z,382.11
2022-09-01T18:25:23.489Z,382.20
2022-09-01T18:30:51.733Z,382.12
2022-09-01T18:35:38.049Z,381.88
2022-09-01T18:40:45.393Z,381.56
2022-09-01T18:45:52.587Z,381.67
2022-09-01T18:50:59.821Z,381.46
2022-09-01T18:56:07.368Z,380.75
2022-09-01T19:01:14.784Z,380.85
2022-09-01T19:06:22.186Z,380.54
2022-09-01T19:11:29.933Z,380.23
2022-09-01T19:16:37.309Z,380.16
2022-09-01T19:21:45.025Z,379.99
2022-09-01T19:26:52.415Z,379.77
2022-09-01T19:31:59.850Z,380.00
2022-09-01T19:37:07.196Z,380.01
2022-09-01T19:42:14.771Z,380.13
2022-09-01T19:47:22.279Z,380.15
2022-09-01T19:52:29.585Z,380.31
2022-09-01T19:57:36.790Z,380.63
2022-09-01T20:02:44.060Z,380.65
2022-09-01T20:07:51.229Z,380.56
2022-09-01T20:12:58.451Z,380.21
2022-09-01T20:18:05.927Z,381.00
2022-09-01T20:23:13.134Z,381.18
2022-09-01T20:28:20.435Z,381.21
2022-09-01T20:33:27.570Z,381.72
2022-09-01T20:38:34.845Z,381.90
2022-09-01T20:43:42.040Z,381.48
2022-09-01T20:48:49.237Z,381.71
2022-09-01T20:53:56.480Z,381.53
2022-09-01T20:59:03.687Z,381.70
2022-09-01T21:04:10.880Z,381.87
2022-09-01T21:09:18.058Z,381.90
2022-09-01T21:14:25.291Z,382.06
2022-09-01T21:19:32.558Z,382.30
2022-09-01T21:24:39.798Z,381.40
2022-09-01T21:29:47.031Z,381.55
2022-09-01T21:34:54.201Z,381.58
2022-09-01T21:40:01.389Z,381.22
2022-09-01T21:45:08.569Z,381.39
2022-09-01T21:50:15.770Z,381.59
2022-09-01T21:55:23.282Z,381.76
2022-09-01T22:00:30.212Z,381.93
2022-09-01T22:05:37.390Z,382.01
2022-09-01T22:10:44.581Z,382.41
2022-09-01T22:15:51.822Z,382.61
2022-09-01T22:20:59.106Z,383.03
2022-09-01T22:26:06.566Z,382.72
2022-09-01T22:31:13.821Z,382.65
2022-09-01T22:36:20.938Z,382.88
2022-09-01T22:41:28.186Z,382.77
2022-09-01T22:46:35.387Z,382.60
2022-09-01T22:51:42.575Z,383.04
2022-09-01T22:56:49.756Z,382.83
2022-09-01T23:01:57.015Z,382.64
2022-09-01T23:07:04.158Z,382.56
2022-09-01T23:12:11.418Z,382.57
2022-09-01T23:17:18.592Z,383.20
2022-09-01T23:22:25.786Z,383.65
2022-09-01T23:27:32.976Z,383.99
2022-09-01T23:32:40.151Z,383.70
2022-09-01T23:37:47.333Z,384.33
2022-09-01T23:42:54.522Z,384.48
2022-09-01T23:48:01.703Z,384.96
2022-09-01T23:53:08.888Z,385.15
2022-09-01T23:58:16.086Z,385.20
